Time;durP1;ratioP1;P1;durP2;ratioP2;P2;SDS_P1;SDS_P2;PMS_P1;PMS_P2;Temp;Humidity;BMP_temperature;BMP_pressure;BME280_temperature;BME280_humidity;BME280_pressure;Samples;Min_cycle;Max_cycle;Signal;HPM_P1;HPM_P2
2023/04/06 00:00:09;;;;;;;;;;;;;;;15.91;46.47;102042.19;2088100;28;19977;-54
2023/04/06 00:01:11;;;;;;;;;;;;;;;15.92;46.62;102046.50;2084522;28;20441;-54
2023/04/06 00:02:13;;;;;;;;;;;;;;;15.91;46.55;102044.91;2084924;28;19937;-53
2023/04/06 00:03:15;;;;;;;;;;;;;;;15.91;46.66;102042.97;2083406;28;20380;-55
2023/04/06 00:04:18;;;;;;;;;;;;;;;15.91;46.46;102037.53;2088142;28;19929;-55
2023/04/06 00:05:20;;;;;;;;;;;;;;;15.91;46.71;102039.47;2084540;28;19946;-58
2023/04/06 00:06:23;;;;;;;;;;;;;;;15.91;46.59;102042.97;2085650;28;19975;-55
2023/04/06 00:07:25;;;;;;;;;;;;;;;15.90;46.56;102035.94;2082284;28;19936;-53
2023/04/06 00:08:29;;;;;;;;;;;;;;;15.91;46.70;102037.53;2083051;28;19964;-54
2023/04/06 00:09:30;;;;;;;;;;;;;;;15.91;46.49;102034.00;2085086;28;19929;-55
2023/04/06 00:10:33;;;;;;;;;;;;;;;15.91;46.40;102039.47;2088256;28;19933;-53
2023/04/06 00:11:35;;;;;;;;;;;;;;;15.91;46.70;102036.72;2088688;28;20020;-54
2023/04/06 00:12:38;;;;;;;;;;;;;;;15.90;46.54;102030.50;2088412;28;19935;-55
2023/04/06 00:13:40;;;;;;;;;;;;;;;15.91;46.40;102037.53;2083223;28;19931;-54
2023/04/06 00:14:42;;;;;;;;;;;;;;;15.91;46.70;102034.00;2087310;28;20434;-55
2023/04/06 00:15:44;;;;;;;;;;;;;;;15.90;46.60;102030.50;2081227;28;20430;-54
2023/04/06 00:16:47;;;;;;;;;;;;;;;15.90;46.67;102027.75;2084451;28;20346;-53
2023/04/06 00:17:48;;;;;;;;;;;;;;;15.90;46.53;102037.88;2081459;28;19959;-55
2023/04/06 00:18:51;;;;;;;;;;;;;;;15.90;46.58;102027.75;2087927;28;19929;-56
2023/04/06 00:19:53;;;;;;;;;;;;;;;15.90;46.68;102032.44;2079823;28;19929;-55
2023/04/06 00:20:56;;;;;;;;;;;;;;;15.89;46.56;102028.91;2079700;28;19925;-55
2023/04/06 00:21:58;;;;;;;;;;;;;;;15.90;46.62;102030.50;2088494;28;20322;-54
2023/04/06 00:23:00;;;;;;;;;;;;;;;15.90;46.42;102030.50;2088996;28;19974;-54
2023/04/06 00:24:04;;;;;;;;;;;;;;;15.89;46.61;102023.47;2087141;28;19978;-57
2023/04/06 00:25:07;;;;;;;;;;;;;;;15.90;46.43;102021.53;2085397;28;19936;-55
2023/04/06 00:26:10;;;;;;;;;;;;;;;15.89;46.60;102026.19;2078738;28;19932;-55
2023/04/06 00:27:14;;;;;;;;;;;;;;;15.90;46.58;102016.09;2078251;28;19940;-54
2023/04/06 00:28:16;;;;;;;;;;;;;;;15.89;46.38;102019.94;2080817;28;20026;-55
2023/04/06 00:29:19;;;;;;;;;;;;;;;15.90;46.61;102016.09;2087590;28;20637;-55
2023/04/06 00:30:21;;;;;;;;;;;;;;;15.90;46.53;102022.31;2087848;28;19940;-54
2023/04/06 00:31:24;;;;;;;;;;;;;;;15.90;46.45;102011.41;2079960;28;19929;-54
2023/04/06 00:32:26;;;;;;;;;;;;;;;15.90;46.49;102018.81;2079469;28;19936;-55
2023/04/06 00:33:29;;;;;;;;;;;;;;;15.89;46.53;102009.03;2088276;28;20475;-55
2023/04/06 00:34:31;;;;;;;;;;;;;;;15.90;46.54;101999.75;2088781;28;20393;-55
2023/04/06 00:35:33;;;;;;;;;;;;;;;15.90;46.46;102014.16;2083243;28;19929;-55
2023/04/06 00:36:35;;;;;;;;;;;;;;;15.89;46.42;102007.13;2083413;28;20403;-55
2023/04/06 00:37:37;;;;;;;;;;;;;;;15.89;46.60;102009.84;2084371;28;19929;-55
2023/04/06 00:38:39;;;;;;;;;;;;;;;15.89;46.58;102003.59;2088946;28;20289;-54
2023/04/06 00:39:43;;;;;;;;;;;;;;;15.88;46.58;102005.56;2075491;28;20436;-54
2023/04/06 00:40:45;;;;;;;;;;;;;;;15.90;46.11;102002.47;2078568;28;19925;-55
2023/04/06 00:41:51;;;;;;;;;;;;;;;15.88;46.41;102004.75;2083182;28;20312;-56
2023/04/06 00:42:53;;;;;;;;;;;;;;;15.88;46.55;102002.81;2087985;28;19952;-55
2023/04/06 00:43:57;;;;;;;;;;;;;;;15.89;46.61;102004.41;2089072;28;19925;-55
2023/04/06 00:44:59;;;;;;;;;;;;;;;15.89;46.63;101992.72;2072296;28;19936;-55
2023/04/06 00:46:02;;;;;;;;;;;;;;;15.89;46.33;101995.44;2073798;28;19929;-55
2023/04/06 00:47:04;;;;;;;;;;;;;;;15.88;46.46;102002.81;2083652;28;19982;-55
2023/04/06 00:48:07;;;;;;;;;;;;;;;15.88;46.46;101996.59;2083479;28;19979;-55
2023/04/06 00:49:08;;;;;;;;;;;;;;;15.87;46.62;101995.78;2088007;28;19973;-54
2023/04/06 00:50:11;;;;;;;;;;;;;;;15.88;46.67;101997.38;2082695;28;20293;-55
2023/04/06 00:51:13;;;;;;;;;;;;;;;15.88;46.48;101991.94;2085242;28;20384;-55
2023/04/06 00:52:16;;;;;;;;;;;;;;;15.88;46.32;101991.94;2088809;28;20434;-55
2023/04/06 00:53:21;;;;;;;;;;;;;;;15.87;46.56;101984.88;2078679;28;20026;-55
2023/04/06 00:54:24;;;;;;;;;;;;;;;15.89;46.34;101987.25;2070616;28;19929;-53
2023/04/06 00:55:27;;;;;;;;;;;;;;;15.88;46.51;101989.22;2065834;28;20430;-54
2023/04/06 00:56:31;;;;;;;;;;;;;;;15.88;46.45;101982.97;2075527;28;19940;-55
2023/04/06 00:57:36;;;;;;;;;;;;;;;15.87;46.53;101987.59;2088398;28;20301;-55
2023/04/06 00:58:40;;;;;;;;;;;;;;;15.86;46.44;101975.16;2079770;28;19929;-55
2023/04/06 00:59:43;;;;;;;;;;;;;;;15.88;46.30;101974.78;2077699;28;19929;-54
2023/04/06 01:00:48;;;;;;;;;;;;;;;15.88;46.40;101985.69;2101319;22;20011;-65
2023/04/06 01:01:53;;;;;;;;;;;;;;;15.87;46.46;101971.28;2053553;28;20024;-63
2023/04/06 01:03:06;;;;;;;;;;;;;;;15.87;46.40;101974.00;2051329;28;19948;-65
2023/04/06 01:04:13;;;;;;;;;;;;;;;15.86;46.46;101966.97;2066940;23;19933;-56
2023/04/06 01:05:17;;;;;;;;;;;;;;;15.87;46.53;101974.00;2071191;28;20305;-55
2023/04/06 01:06:24;;;;;;;;;;;;;;;15.87;46.44;101967.78;2068278;28;19929;-57
2023/04/06 01:07:33;;;;;;;;;;;;;;;15.87;46.16;101968.53;2077875;28;20446;-57
2023/04/06 01:08:45;;;;;;;;;;;;;;;15.87;46.35;101962.31;2077067;28;19925;-58
2023/04/06 01:09:56;;;;;;;;;;;;;;;15.87;46.32;101965.81;2078100;28;19980;-58
2023/04/06 01:11:02;;;;;;;;;;;;;;;15.87;46.30;101965.03;2069236;28;19926;-58
2023/04/06 01:12:05;;;;;;;;;;;;;;;15.86;46.41;101961.53;2067235;28;20297;-57
2023/04/06 01:13:09;;;;;;;;;;;;;;;15.86;46.41;101961.53;2071322;28;19969;-57
2023/04/06 01:14:32;;;;;;;;;;;;;;;15.86;46.50;101964.25;2069951;28;19932;-58
2023/04/06 01:15:35;;;;;;;;;;;;;;;15.86;46.51;101961.53;2077012;28;20036;-57
2023/04/06 01:16:38;;;;;;;;;;;;;;;15.86;46.26;101953.34;2075786;28;20032;-56
2023/04/06 01:17:45;;;;;;;;;;;;;;;15.86;46.32;101956.06;2079678;28;20392;-58
2023/04/06 01:18:51;;;;;;;;;;;;;;;15.86;46.29;101961.53;2078806;28;20446;-58
2023/04/06 01:19:57;;;;;;;;;;;;;;;15.86;46.46;101955.28;2078695;28;19928;-58
2023/04/06 01:21:04;;;;;;;;;;;;;;;15.86;46.40;101949.81;2076841;28;19994;-55
2023/04/06 01:22:06;;;;;;;;;;;;;;;15.86;46.46;101952.56;2080024;28;19978;-57
2023/04/06 01:23:26;;;;;;;;;;;;;;;15.85;46.31;101954.50;2079542;28;19955;-55
2023/04/06 01:24:28;;;;;;;;;;;;;;;15.85;46.35;101949.06;2075594;28;19930;-57
2023/04/06 01:25:40;;;;;;;;;;;;;;;15.86;46.44;101947.09;2068517;28;19929;-55
2023/04/06 01:26:43;;;;;;;;;;;;;;;15.85;46.45;101948.25;2058603;28;20348;-58
2023/04/06 01:27:46;;;;;;;;;;;;;;;15.85;46.36;101943.63;2062743;28;20384;-54
2023/04/06 01:28:56;;;;;;;;;;;;;;;15.85;46.35;101943.63;2064837;28;19930;-57
2023/04/06 01:30:02;;;;;;;;;;;;;;;15.85;46.43;101943.63;2062516;28;19933;-58
2023/04/06 01:31:30;;;;;;;;;;;;;;;15.85;46.61;101943.63;2063591;28;19940;-59
2023/04/06 01:32:33;;;;;;;;;;;;;;;15.85;46.43;101943.63;2070692;28;20040;-57
2023/04/06 01:33:38;;;;;;;;;;;;;;;15.85;46.34;101943.63;2071308;28;20363;-57
2023/04/06 01:34:43;;;;;;;;;;;;;;;15.84;46.20;101939.28;2078457;28;19951;-57
2023/04/06 01:35:45;;;;;;;;;;;;;;;15.84;46.46;101939.28;2079729;28;19972;-57
2023/04/06 01:36:51;;;;;;;;;;;;;;;15.84;46.52;101947.47;2065963;28;19934;-57
2023/04/06 01:37:59;;;;;;;;;;;;;;;15.84;46.42;101936.56;2071283;28;19929;-58
2023/04/06 01:39:07;;;;;;;;;;;;;;;15.85;46.28;101943.63;2079040;28;19936;-56
2023/04/06 01:40:13;;;;;;;;;;;;;;;15.84;46.29;101942.00;2078423;28;19925;-57
2023/04/06 01:41:26;;;;;;;;;;;;;;;15.83;46.37;101935.00;2071021;28;20372;-56
2023/04/06 01:42:30;;;;;;;;;;;;;;;15.84;46.23;101936.56;2063842;28;20178;-57
2023/04/06 01:43:32;;;;;;;;;;;;;;;15.84;46.26;101942.00;2071205;28;19963;-58
2023/04/06 01:44:43;;;;;;;;;;;;;;;15.83;46.26;101940.44;2070974;28;19972;-58
2023/04/06 01:45:49;;;;;;;;;;;;;;;15.84;46.50;101936.56;2071915;28;19936;-56
2023/04/06 01:46:54;;;;;;;;;;;;;;;15.83;46.40;101937.72;2070410;28;20060;-57
2023/04/06 01:47:57;;;;;;;;;;;;;;;15.83;46.38;101940.44;2063160;28;20479;-58
2023/04/06 01:49:01;;;;;;;;;;;;;;;15.84;46.35;101931.13;2062797;28;19937;-57
2023/04/06 01:50:11;;;;;;;;;;;;;;;15.83;46.15;101936.91;2063690;28;19930;-56
2023/04/06 01:51:18;;;;;;;;;;;;;;;15.84;46.25;101930.34;2063853;28;19937;-55
2023/04/06 01:52:27;;;;;;;;;;;;;;;15.83;46.29;101935.00;2063855;28;19929;-56
2023/04/06 01:53:28;;;;;;;;;;;;;;;15.83;46.05;101935.00;2070346;28;19944;-56
2023/04/06 01:54:38;;;;;;;;;;;;;;;15.83;46.22;101926.81;2070571;28;19933;-58
2023/04/06 01:55:45;;;;;;;;;;;;;;;15.82;46.16;101927.97;2063876;28;20393;-56
2023/04/06 01:56:56;;;;;;;;;;;;;;;15.83;46.17;101929.53;2063930;28;20420;-57
2023/04/06 01:58:14;;;;;;;;;;;;;;;15.82;46.39;101927.97;2064523;28;20399;-57
2023/04/06 01:59:17;;;;;;;;;;;;;;;15.83;46.30;101928.75;2071651;28;20389;-57
2023/04/06 02:00:19;;;;;;;;;;;;;;;15.83;46.34;101926.81;2069872;28;20359;-56
2023/04/06 02:01:27;;;;;;;;;;;;;;;15.82;46.13;101916.28;2068488;28;20367;-55
2023/04/06 02:02:31;;;;;;;;;;;;;;;15.82;46.23;101917.09;2079025;28;19929;-56
2023/04/06 02:03:41;;;;;;;;;;;;;;;15.82;46.13;101922.53;2073638;28;19940;-57
2023/04/06 02:04:45;;;;;;;;;;;;;;;15.82;46.26;101925.25;2074170;28;19934;-57
2023/04/06 02:05:49;;;;;;;;;;;;;;;15.82;46.24;101922.53;2071359;28;19941;-57
2023/04/06 02:06:57;;;;;;;;;;;;;;;15.82;46.26;101921.72;2062968;28;20072;-56
2023/04/06 02:08:03;;;;;;;;;;;;;;;15.82;46.15;101917.09;2062433;28;19937;-58
2023/04/06 02:09:08;;;;;;;;;;;;;;;15.82;46.23;101917.09;2070741;28;19987;-57
2023/04/06 02:10:13;;;;;;;;;;;;;;;15.82;46.29;101927.16;2064280;28;20013;-58
2023/04/06 02:11:17;;;;;;;;;;;;;;;15.82;46.20;101910.84;2066439;28;20389;-57
2023/04/06 02:12:23;;;;;;;;;;;;;;;15.81;46.18;101912.75;2070565;28;19929;-57
2023/04/06 02:13:26;;;;;;;;;;;;;;;15.82;46.29;101905.38;2071684;28;19930;-58
2023/04/06 02:14:29;;;;;;;;;;;;;;;15.81;46.20;101909.25;2066277;28;20605;-58
2023/04/06 02:15:34;;;;;;;;;;;;;;;15.81;46.31;101904.59;2062712;28;20035;-57
2023/04/06 02:16:36;;;;;;;;;;;;;;;15.80;46.38;101916.63;2070051;28;20000;-57
2023/04/06 02:17:39;;;;;;;;;;;;;;;15.80;46.29;101908.47;2055005;28;20464;-57
2023/04/06 02:18:41;;;;;;;;;;;;;;;15.80;46.16;101903.00;2069286;28;19926;-57
2023/04/06 02:19:44;;;;;;;;;;;;;;;15.81;46.21;101904.59;2070011;28;19929;-57
2023/04/06 02:20:46;;;;;;;;;;;;;;;15.81;46.40;101903.81;2069674;28;19926;-57
2023/04/06 02:21:48;;;;;;;;;;;;;;;15.81;46.34;101901.88;2063445;28;19934;-58
2023/04/06 02:22:50;;;;;;;;;;;;;;;15.81;46.29;101901.88;2070224;28;20028;-57
2023/04/06 02:23:53;;;;;;;;;;;;;;;15.80;46.33;101902.22;2067819;28;19930;-57
2023/04/06 02:24:55;;;;;;;;;;;;;;;15.80;46.09;101902.22;2073457;28;20319;-57
2023/04/06 02:25:59;;;;;;;;;;;;;;;15.79;46.29;101898.69;2069144;28;19930;-57
2023/04/06 02:27:01;;;;;;;;;;;;;;;15.79;46.30;101901.41;2071991;28;19960;-57
2023/04/06 02:28:04;;;;;;;;;;;;;;;15.80;46.22;101903.00;2071217;28;19957;-54
2023/04/06 02:29:06;;;;;;;;;;;;;;;15.79;46.10;101901.41;2071166;28;20012;-58
2023/04/06 02:30:10;;;;;;;;;;;;;;;15.80;46.28;101905.75;2071400;28;19934;-58
2023/04/06 02:31:14;;;;;;;;;;;;;;;15.80;46.29;101900.28;2064461;28;19937;-56
2023/04/06 02:32:19;;;;;;;;;;;;;;;15.79;46.08;101895.97;2069895;28;20035;-58
2023/04/06 02:33:21;;;;;;;;;;;;;;;15.80;46.10;101902.22;2062648;28;19933;-56
2023/04/06 02:34:24;;;;;;;;;;;;;;;15.79;46.28;101904.13;2062443;28;19968;-56
2023/04/06 02:35:28;;;;;;;;;;;;;;;15.79;46.22;101901.41;2069620;28;20412;-58
2023/04/06 02:36:31;;;;;;;;;;;;;;;15.79;46.10;101901.41;2071771;28;19930;-58
2023/04/06 02:37:32;;;;;;;;;;;;;;;15.79;46.12;101906.84;2070952;28;20480;-55
2023/04/06 02:38:35;;;;;;;;;;;;;;;15.79;46.27;101901.41;2062317;28;19929;-58
2023/04/06 02:39:37;;;;;;;;;;;;;;;15.79;46.07;101895.19;2066298;28;19929;-58
2023/04/06 02:40:43;;;;;;;;;;;;;;;15.78;46.12;101899.84;2073979;28;19975;-58
2023/04/06 02:41:55;;;;;;;;;;;;;;;15.78;46.25;101894.41;2070762;28;20467;-57
2023/04/06 02:42:59;;;;;;;;;;;;;;;15.78;46.01;101894.41;2062588;28;20451;-55
2023/04/06 02:44:06;;;;;;;;;;;;;;;15.79;46.09;101895.97;2063500;28;19930;-58
2023/04/06 02:45:14;;;;;;;;;;;;;;;15.78;46.21;101902.56;2063322;28;20403;-56
2023/04/06 02:46:19;;;;;;;;;;;;;;;15.78;46.23;101899.84;2056181;28;20394;-57
2023/04/06 02:47:22;;;;;;;;;;;;;;;15.78;46.00;101899.03;2051814;28;20309;-57
2023/04/06 02:48:25;;;;;;;;;;;;;;;15.78;46.03;101894.41;2063534;28;20385;-59
2023/04/06 02:49:28;;;;;;;;;;;;;;;15.78;46.08;101888.94;2070939;28;20021;-57
2023/04/06 02:50:32;;;;;;;;;;;;;;;15.77;46.09;101892.81;2062404;28;20033;-56
2023/04/06 02:51:38;;;;;;;;;;;;;;;15.79;46.09;101892.47;2063117;28;20299;-58
2023/04/06 02:52:54;;;;;;;;;;;;;;;15.78;46.05;101890.88;2059898;28;20318;-58
2023/04/06 02:53:58;;;;;;;;;;;;;;;15.78;46.20;101888.16;2057658;28;20040;-56
2023/04/06 02:55:00;;;;;;;;;;;;;;;15.78;46.03;101888.94;2063475;28;20324;-57
2023/04/06 02:56:05;;;;;;;;;;;;;;;15.77;46.17;101892.81;2062963;28;20532;-57
2023/04/06 02:57:19;;;;;;;;;;;;;;;15.77;46.07;101884.66;2062476;28;19929;-56
2023/04/06 02:58:22;;;;;;;;;;;;;;;15.78;45.97;101885.44;2064741;28;19933;-57
2023/04/06 02:59:27;;;;;;;;;;;;;;;15.77;46.13;101881.94;2062481;28;19937;-56
2023/04/06 03:00:50;;;;;;;;;;;;;;;15.78;46.07;101882.69;2065103;28;20411;-57
2023/04/06 03:01:52;;;;;;;;;;;;;;;15.76;46.09;101876.84;2071164;28;19930;-57
2023/04/06 03:02:55;;;;;;;;;;;;;;;15.78;46.17;101882.69;2069503;28;20404;-57
2023/04/06 03:03:58;;;;;;;;;;;;;;;15.77;46.23;101881.94;2072180;28;19965;-57
2023/04/06 03:05:03;;;;;;;;;;;;;;;15.78;46.05;101882.69;2074810;28;20014;-57
2023/04/06 03:06:08;;;;;;;;;;;;;;;15.77;45.94;101872.97;2064858;28;20056;-57
2023/04/06 03:07:11;;;;;;;;;;;;;;;15.78;45.91;101879.97;2062517;28;19926;-58
2023/04/06 03:08:13;;;;;;;;;;;;;;;15.75;46.17;101870.59;2062405;28;19930;-57
2023/04/06 03:09:19;;;;;;;;;;;;;;;15.76;46.12;101874.88;2062869;28;19948;-57
2023/04/06 03:10:21;;;;;;;;;;;;;;;15.75;46.65;101862.41;2062715;28;20012;-57
2023/04/06 03:11:26;;;;;;;;;;;;;;;15.75;46.14;101869.78;2061967;28;20442;-57
2023/04/06 03:12:29;;;;;;;;;;;;;;;15.75;46.02;101867.06;2063451;28;20384;-56
2023/04/06 03:13:59;;;;;;;;;;;;;;;15.75;45.96;101864.34;2068762;28;19937;-56
2023/04/06 03:15:00;;;;;;;;;;;;;;;15.75;46.16;101867.88;2063648;28;19934;-56
2023/04/06 03:16:04;;;;;;;;;;;;;;;15.76;45.81;101865.94;2062867;28;19965;-56
2023/04/06 03:17:06;;;;;;;;;;;;;;;15.75;46.07;101867.88;2076811;28;19933;-57
2023/04/06 03:18:09;;;;;;;;;;;;;;;15.76;46.44;101872.16;2068187;28;19926;-57
2023/04/06 03:19:16;;;;;;;;;;;;;;;15.75;45.86;101873.31;2064255;28;19937;-58
2023/04/06 03:20:18;;;;;;;;;;;;;;;15.74;46.01;101869.03;2065829;28;20337;-55
2023/04/06 03:21:20;;;;;;;;;;;;;;;15.75;46.10;101870.59;2070264;28;19940;-56
2023/04/06 03:22:26;;;;;;;;;;;;;;;15.75;46.11;101867.06;2062839;28;19930;-56
2023/04/06 03:23:28;;;;;;;;;;;;;;;15.74;46.14;101869.03;2054878;28;19930;-57
2023/04/06 03:24:34;;;;;;;;;;;;;;;15.74;45.82;101873.66;2062700;28;19933;-57
2023/04/06 03:25:36;;;;;;;;;;;;;;;15.73;46.12;101870.13;2069189;28;19933;-57
2023/04/06 03:26:41;;;;;;;;;;;;;;;15.74;46.12;101863.56;2055133;28;19985;-54
2023/04/06 03:27:44;;;;;;;;;;;;;;;15.74;46.12;101866.28;2062433;28;19929;-57
2023/04/06 03:28:50;;;;;;;;;;;;;;;15.75;45.97;101861.63;2067620;28;20396;-59
2023/04/06 03:29:53;;;;;;;;;;;;;;;15.75;45.95;101867.06;2054724;28;20285;-56
2023/04/06 03:31:02;;;;;;;;;;;;;;;15.74;46.07;101860.84;2063064;28;20451;-56
2023/04/06 03:32:40;;;;;;;;;;;;;;;15.73;45.98;101856.53;2052232;28;19926;-57
2023/04/06 03:33:42;;;;;;;;;;;;;;;15.73;46.03;101851.09;2050899;28;19969;-59
2023/04/06 03:34:49;;;;;;;;;;;;;;;15.74;45.95;101854.59;2050752;28;20402;-58
2023/04/06 03:35:51;;;;;;;;;;;;;;;15.74;46.04;101863.56;2070940;28;19981;-56
2023/04/06 03:36:54;;;;;;;;;;;;;;;15.74;45.94;101863.56;2070115;28;20019;-57
2023/04/06 03:38:10;;;;;;;;;;;;;;;15.74;45.83;101866.28;2070895;28;19936;-57
2023/04/06 03:39:13;;;;;;;;;;;;;;;15.73;45.96;101853.81;2070013;28;19933;-56
2023/04/06 03:40:16;;;;;;;;;;;;;;;15.73;46.00;101856.53;2070734;28;19986;-57
2023/04/06 03:41:19;;;;;;;;;;;;;;;15.74;46.10;101852.69;2071103;28;19933;-55
2023/04/06 03:42:29;;;;;;;;;;;;;;;15.72;45.98;101854.16;2061406;28;19933;-57
2023/04/06 03:43:39;;;;;;;;;;;;;;;15.73;45.97;101853.81;2069224;28;19929;-56
2023/04/06 03:44:40;;;;;;;;;;;;;;;15.73;46.03;101853.81;2078941;28;19933;-58
2023/04/06 03:45:43;;;;;;;;;;;;;;;15.73;46.03;101861.19;2055244;28;20348;-57
2023/04/06 03:46:46;;;;;;;;;;;;;;;15.73;45.99;101861.97;2050126;28;20019;-57
2023/04/06 03:47:49;;;;;;;;;;;;;;;15.73;45.98;101853.81;2071499;28;19937;-56
2023/04/06 03:48:52;;;;;;;;;;;;;;;15.72;45.92;101852.22;2072251;28;19957;-55
2023/04/06 03:49:56;;;;;;;;;;;;;;;15.72;45.83;101854.97;2075588;28;19934;-55
2023/04/06 03:50:58;;;;;;;;;;;;;;;15.72;46.27;101857.69;2072621;28;19930;-57
2023/04/06 03:52:02;;;;;;;;;;;;;;;15.72;45.99;101852.22;2072092;28;19929;-57
2023/04/06 03:53:03;;;;;;;;;;;;;;;15.72;45.96;101857.69;2072965;28;20415;-57
2023/04/06 03:54:06;;;;;;;;;;;;;;;15.72;46.09;101849.50;2073174;28;20312;-57
2023/04/06 03:55:08;;;;;;;;;;;;;;;15.72;45.95;101848.72;2072210;28;20380;-57
2023/04/06 03:56:11;;;;;;;;;;;;;;;15.72;46.04;101849.50;2065952;28;19934;-57
2023/04/06 03:57:13;;;;;;;;;;;;;;;15.72;45.96;101849.50;2065333;28;20332;-57
2023/04/06 03:58:16;;;;;;;;;;;;;;;15.72;45.83;101854.16;2071906;28;20388;-58
2023/04/06 03:59:19;;;;;;;;;;;;;;;15.71;46.03;101845.22;2070769;28;19929;-57
2023/04/06 04:00:22;;;;;;;;;;;;;;;15.71;45.94;101850.66;2064466;28;19940;-57
2023/04/06 04:01:23;;;;;;;;;;;;;;;15.71;45.93;101850.66;2071839;28;19949;-57
2023/04/06 04:02:26;;;;;;;;;;;;;;;15.72;46.03;101851.44;2072587;28;19980;-57
2023/04/06 04:03:28;;;;;;;;;;;;;;;15.71;45.99;101850.66;2071323;28;19929;-56
2023/04/06 04:04:31;;;;;;;;;;;;;;;15.72;46.03;101854.16;2074690;28;19937;-56
2023/04/06 04:05:32;;;;;;;;;;;;;;;15.71;46.07;101852.59;2072634;28;19930;-55
2023/04/06 04:06:36;;;;;;;;;;;;;;;15.70;46.09;101854.50;2071356;28;20613;-56
2023/04/06 04:07:38;;;;;;;;;;;;;;;15.70;46.08;101854.50;2072606;28;20394;-56
2023/04/06 04:08:42;;;;;;;;;;;;;;;15.71;45.96;101856.09;2080535;28;20486;-57
2023/04/06 04:09:43;;;;;;;;;;;;;;;15.71;45.89;101855.31;2072386;28;20381;-58
2023/04/06 04:10:46;;;;;;;;;;;;;;;15.71;45.79;101853.38;2072220;28;19933;-57
2023/04/06 04:11:48;;;;;;;;;;;;;;;15.70;45.90;101854.50;2065254;28;19941;-57
2023/04/06 04:12:51;;;;;;;;;;;;;;;15.71;46.06;101858.03;2065766;28;20334;-56
2023/04/06 04:13:52;;;;;;;;;;;;;;;15.71;46.00;101855.31;2072462;28;20399;-58
2023/04/06 04:14:56;;;;;;;;;;;;;;;15.70;45.94;101854.50;2072486;28;19926;-58
2023/04/06 04:15:58;;;;;;;;;;;;;;;15.70;45.95;101849.06;2063739;28;19965;-57
2023/04/06 04:17:01;;;;;;;;;;;;;;;15.70;45.89;101842.81;2056286;28;19930;-58
2023/04/06 04:18:03;;;;;;;;;;;;;;;15.70;45.98;101851.78;2072387;28;20289;-57
2023/04/06 04:19:06;;;;;;;;;;;;;;;15.70;45.85;101848.25;2072157;28;19933;-58
2023/04/06 04:20:08;;;;;;;;;;;;;;;15.69;45.83;101850.22;2072339;28;20352;-55
2023/04/06 04:21:11;;;;;;;;;;;;;;;15.70;45.91;101851.78;2064319;28;19952;-58
2023/04/06 04:22:13;;;;;;;;;;;;;;;15.69;45.83;101858.38;2055496;28;19930;-56
2023/04/06 04:23:16;;;;;;;;;;;;;;;15.70;46.04;101849.06;2064460;28;19929;-58
2023/04/06 04:24:19;;;;;;;;;;;;;;;15.69;45.95;101847.50;2066638;28;20351;-57
2023/04/06 04:25:21;;;;;;;;;;;;;;;15.69;45.82;101852.94;2068946;28;19926;-58
2023/04/06 04:26:24;;;;;;;;;;;;;;;15.69;45.76;101842.03;2062459;28;20432;-58
2023/04/06 04:27:26;;;;;;;;;;;;;;;15.69;45.86;101852.94;2061600;28;19926;-56
2023/04/06 04:28:32;;;;;;;;;;;;;;;15.70;45.76;101848.25;2059358;28;20475;-58
2023/04/06 04:29:34;;;;;;;;;;;;;;;15.69;45.78;101842.03;2072029;28;19937;-57
2023/04/06 04:30:42;;;;;;;;;;;;;;;15.69;45.93;101850.22;2071269;28;20399;-58
2023/04/06 04:31:45;;;;;;;;;;;;;;;15.69;46.00;101844.78;2071837;28;20315;-57
2023/04/06 04:32:52;;;;;;;;;;;;;;;15.69;45.83;101847.50;2064482;28;20405;-57
2023/04/06 04:33:58;;;;;;;;;;;;;;;15.68;46.01;101835.00;2056173;28;20353;-58
2023/04/06 04:35:03;;;;;;;;;;;;;;;15.69;45.97;101841.25;2065024;28;20436;-57
2023/04/06 04:36:12;;;;;;;;;;;;;;;15.68;45.78;101845.88;2071482;28;20016;-58
2023/04/06 04:37:16;;;;;;;;;;;;;;;15.68;45.87;101847.84;2060862;28;19930;-55
2023/04/06 04:38:29;;;;;;;;;;;;;;;15.68;45.77;101843.16;2056414;28;20017;-58
2023/04/06 04:39:31;;;;;;;;;;;;;;;15.68;45.81;101840.44;2055105;28;19926;-58
2023/04/06 04:40:39;;;;;;;;;;;;;;;15.67;45.89;101841.59;2061057;28;20285;-55
2023/04/06 04:41:43;;;;;;;;;;;;;;;15.68;45.94;101834.22;2063253;28;19965;-57
2023/04/06 04:42:47;;;;;;;;;;;;;;;15.68;45.81;101832.28;2063546;28;20004;-57
2023/04/06 04:43:56;;;;;;;;;;;;;;;15.68;45.91;101834.22;2068329;28;19925;-58
2023/04/06 04:45:01;;;;;;;;;;;;;;;15.67;45.77;101833.44;2059316;28;19930;-56
2023/04/06 04:46:11;;;;;;;;;;;;;;;15.67;45.84;101827.97;2064372;28;19934;-57
2023/04/06 04:47:17;;;;;;;;;;;;;;;15.67;45.73;101833.44;2071472;28;20077;-56
2023/04/06 04:48:20;;;;;;;;;;;;;;;15.68;45.83;101828.78;2066164;28;20298;-57
2023/04/06 04:49:30;;;;;;;;;;;;;;;15.66;45.89;101826.41;2073633;28;19929;-57
2023/04/06 04:50:32;;;;;;;;;;;;;;;15.67;45.73;101829.91;2076145;28;20466;-57
2023/04/06 04:51:36;;;;;;;;;;;;;;;15.67;45.81;101822.53;2068633;28;19930;-55
2023/04/06 04:52:44;;;;;;;;;;;;;;;15.68;45.62;101828.78;2064236;28;19925;-58
2023/04/06 04:53:51;;;;;;;;;;;;;;;15.67;45.87;101825.25;2065118;28;20383;-58
2023/04/06 04:54:57;;;;;;;;;;;;;;;15.66;45.67;101815.53;2072005;28;19961;-58
2023/04/06 04:56:03;;;;;;;;;;;;;;;15.66;45.84;101829.13;2070756;28;20265;-57
2023/04/06 04:57:05;;;;;;;;;;;;;;;15.67;45.73;101830.72;2063232;28;20039;-55
2023/04/06 04:58:16;;;;;;;;;;;;;;;15.67;45.83;101825.25;2063757;28;20328;-55
2023/04/06 04:59:29;;;;;;;;;;;;;;;15.67;45.96;101832.63;2057167;28;19930;-57
2023/04/06 05:00:38;;;;;;;;;;;;;;;15.66;45.88;101826.41;2056708;28;19937;-55
2023/04/06 05:01:41;;;;;;;;;;;;;;;15.67;45.83;101832.63;2068030;28;19930;-55
2023/04/06 05:02:58;;;;;;;;;;;;;;;15.66;45.92;101823.69;2071808;28;19980;-57
2023/04/06 05:04:02;;;;;;;;;;;;;;;15.66;45.72;101820.97;2071069;28;20413;-55
2023/04/06 05:05:05;;;;;;;;;;;;;;;15.66;45.83;101820.97;2054998;28;20373;-55
2023/04/06 05:06:08;;;;;;;;;;;;;;;15.66;45.80;101820.97;2059757;28;19930;-55
2023/04/06 05:07:15;;;;;;;;;;;;;;;15.67;45.81;101821.75;2070269;28;19937;-55
2023/04/06 05:08:18;;;;;;;;;;;;;;;15.66;45.88;101826.41;2071367;28;20463;-56
2023/04/06 05:09:22;;;;;;;;;;;;;;;15.65;45.73;101819.38;2070092;28;19940;-55
2023/04/06 05:10:25;;;;;;;;;;;;;;;15.66;45.76;101820.16;2055131;28;20080;-57
2023/04/06 05:11:32;;;;;;;;;;;;;;;15.65;45.71;101818.59;2055921;28;19941;-55
2023/04/06 05:12:36;;;;;;;;;;;;;;;15.65;45.78;101819.38;2060898;28;20412;-55
2023/04/06 05:13:43;;;;;;;;;;;;;;;15.66;45.69;101820.16;2070531;28;20313;-55
2023/04/06 05:14:52;;;;;;;;;;;;;;;15.64;45.90;101823.25;2071070;28;20028;-54
2023/04/06 05:15:57;;;;;;;;;;;;;;;15.65;45.94;101819.38;2070680;28;20205;-54
2023/04/06 05:17:07;;;;;;;;;;;;;;;15.65;45.79;101819.38;2062896;28;19930;-54
2023/04/06 05:18:09;;;;;;;;;;;;;;;15.64;46.08;101820.53;2066651;28;19937;-54
2023/04/06 05:19:11;;;;;;;;;;;;;;;15.66;45.73;101825.63;2071432;28;20680;-56
2023/04/06 05:20:18;;;;;;;;;;;;;;;15.66;45.78;101825.63;2063275;28;20453;-54
2023/04/06 05:21:24;;;;;;;;;;;;;;;15.66;45.72;101828.34;2063869;28;20551;-55
2023/04/06 05:22:39;;;;;;;;;;;;;;;15.65;45.81;101816.66;2075380;28;20327;-54
2023/04/06 05:23:44;;;;;;;;;;;;;;;15.64;45.87;101817.78;2071811;28;19933;-54
2023/04/06 05:24:46;;;;;;;;;;;;;;;15.65;45.85;101819.38;2070960;28;20471;-55
2023/04/06 05:25:49;;;;;;;;;;;;;;;15.65;45.86;101822.09;2064049;28;20396;-55
2023/04/06 05:26:56;;;;;;;;;;;;;;;15.64;45.75;101817.78;2071189;28;19937;-54
2023/04/06 05:27:58;;;;;;;;;;;;;;;15.65;45.70;101819.38;2063232;28;20029;-55
2023/04/06 05:29:05;;;;;;;;;;;;;;;15.65;45.80;101829.50;2057528;28;20322;-55
2023/04/06 05:30:10;;;;;;;;;;;;;;;15.64;45.72;101814.28;2055895;28;19930;-54
2023/04/06 05:31:19;;;;;;;;;;;;;;;15.65;45.98;101822.09;2055857;28;20297;-58
2023/04/06 05:32:27;;;;;;;;;;;;;;;15.65;45.84;101813.16;2063120;28;19934;-58